Weather at King Island Airport

Public forecast

Using degrees Celsius for public forecast. Weather courtesy of forecast.io.

Closest aviation weather report (METAR) to King Island Airport

Closest report is Avalon Airport, 113.8 nm (210.7 km) NNE. Retrieved 2020/10/19 23:30 UTC (14 minutes ago):

YMAV 192330Z AUTO 26001KT 9999 // OVC033 Q1019 RF000/0000

Closest aviation forecast (TAF) to King Island Airport

Closest forecast is Avalon Airport, 113.8 nm (210.7 km) NNE. Retrieved 2020/10/19 18:33 UTC (5 hours ago):

TAF YMAV 191700Z 1918/2018 27004KT 9999 BKN025 FM200000 12008KT 9999 SCT035 FM201000 VRB03KT 9999 SCT040 PROB30 1918/1922 2000 BR